sensor_id;sensor_type;location;lat;lon;timestamp;temperature;humidity
70246;SHT30;57637;49.272;8.590;2023-02-15T00:01:07;1.02;95.98
70246;SHT30;57637;49.272;8.590;2023-02-15T00:03:33;0.97;95.94
70246;SHT30;57637;49.272;8.590;2023-02-15T00:05:58;0.92;95.96
70246;SHT30;57637;49.272;8.590;2023-02-15T00:08:24;0.88;95.96
70246;SHT30;57637;49.272;8.590;2023-02-15T00:10:49;0.89;95.93
70246;SHT30;57637;49.272;8.590;2023-02-15T00:13:15;0.80;95.90
70246;SHT30;57637;49.272;8.590;2023-02-15T00:15:40;0.78;95.96
70246;SHT30;57637;49.272;8.590;2023-02-15T00:18:05;0.70;95.92
70246;SHT30;57637;49.272;8.590;2023-02-15T00:20:31;0.70;95.90
70246;SHT30;57637;49.272;8.590;2023-02-15T00:22:56;0.74;95.96
70246;SHT30;57637;49.272;8.590;2023-02-15T00:25:21;0.71;96.01
70246;SHT30;57637;49.272;8.590;2023-02-15T00:27:47;0.70;96.00
70246;SHT30;57637;49.272;8.590;2023-02-15T00:30:12;0.73;96.01
70246;SHT30;57637;49.272;8.590;2023-02-15T00:32:39;0.67;96.02
70246;SHT30;57637;49.272;8.590;2023-02-15T00:35:05;0.68;96.05
70246;SHT30;57637;49.272;8.590;2023-02-15T00:37:31;0.68;96.05
70246;SHT30;57637;49.272;8.590;2023-02-15T00:39:57;0.67;96.04
70246;SHT30;57637;49.272;8.590;2023-02-15T00:42:22;0.67;96.06
70246;SHT30;57637;49.272;8.590;2023-02-15T00:44:47;0.68;96.06
70246;SHT30;57637;49.272;8.590;2023-02-15T00:47:13;0.70;96.09
70246;SHT30;57637;49.272;8.590;2023-02-15T00:49:38;0.70;96.11
70246;SHT30;57637;49.272;8.590;2023-02-15T00:52:03;0.67;96.11
70246;SHT30;57637;49.272;8.590;2023-02-15T00:54:29;0.65;96.11
70246;SHT30;57637;49.272;8.590;2023-02-15T00:56:54;0.64;96.14
70246;SHT30;57637;49.272;8.590;2023-02-15T00:59:20;0.61;96.13
70246;SHT30;57637;49.272;8.590;2023-02-15T01:01:45;0.63;96.15
70246;SHT30;57637;49.272;8.590;2023-02-15T01:04:10;0.60;96.13
70246;SHT30;57637;49.272;8.590;2023-02-15T01:06:36;0.58;96.17
70246;SHT30;57637;49.272;8.590;2023-02-15T01:09:01;0.57;96.21
70246;SHT30;57637;49.272;8.590;2023-02-15T01:11:27;0.61;96.21
70246;SHT30;57637;49.272;8.590;2023-02-15T01:13:56;0.64;96.24
70246;SHT30;57637;49.272;8.590;2023-02-15T01:16:23;0.63;96.22
70246;SHT30;57637;49.272;8.590;2023-02-15T01:18:49;0.60;96.22
70246;SHT30;57637;49.272;8.590;2023-02-15T01:21:16;0.65;96.26
70246;SHT30;57637;49.272;8.590;2023-02-15T01:23:43;0.64;96.26
70246;SHT30;57637;49.272;8.590;2023-02-15T01:26:09;0.63;96.25
70246;SHT30;57637;49.272;8.590;2023-02-15T01:28:35;0.60;96.24
70246;SHT30;57637;49.272;8.590;2023-02-15T01:31:04;0.64;96.25
70246;SHT30;57637;49.272;8.590;2023-02-15T01:33:33;0.70;96.29
70246;SHT30;57637;49.272;8.590;2023-02-15T01:35:59;0.67;96.23
70246;SHT30;57637;49.272;8.590;2023-02-15T01:38:25;0.63;96.25
70246;SHT30;57637;49.272;8.590;2023-02-15T01:40:51;0.68;96.25
70246;SHT30;57637;49.272;8.590;2023-02-15T01:43:18;0.70;96.26
70246;SHT30;57637;49.272;8.590;2023-02-15T01:45:43;0.63;96.26
70246;SHT30;57637;49.272;8.590;2023-02-15T01:50:50;0.71;96.26
70246;SHT30;57637;49.272;8.590;2023-02-15T01:53:32;0.77;96.28
70246;SHT30;57637;49.272;8.590;2023-02-15T01:56:04;0.74;96.27
70246;SHT30;57637;49.272;8.590;2023-02-15T01:58:36;0.71;96.24
70246;SHT30;57637;49.272;8.590;2023-02-15T02:01:02;0.80;96.25
70246;SHT30;57637;49.272;8.590;2023-02-15T02:06:04;0.71;96.26
70246;SHT30;57637;49.272;8.590;2023-02-15T02:08:30;0.74;96.24
70246;SHT30;57637;49.272;8.590;2023-02-15T02:10:56;0.70;96.21
70246;SHT30;57637;49.272;8.590;2023-02-15T02:13:22;0.75;96.24
70246;SHT30;57637;49.272;8.590;2023-02-15T02:15:52;0.77;96.26
70246;SHT30;57637;49.272;8.590;2023-02-15T02:18:35;0.73;96.26
70246;SHT30;57637;49.272;8.590;2023-02-15T02:21:16;0.70;96.26
70246;SHT30;57637;49.272;8.590;2023-02-15T02:23:58;0.74;96.29
70246;SHT30;57637;49.272;8.590;2023-02-15T02:32:48;0.70;96.24
70246;SHT30;57637;49.272;8.590;2023-02-15T02:35:34;0.73;96.26
70246;SHT30;57637;49.272;8.590;2023-02-15T02:38:21;0.75;96.24
70246;SHT30;57637;49.272;8.590;2023-02-15T02:43:59;0.75;96.29
70246;SHT30;57637;49.272;8.590;2023-02-15T02:49:44;0.80;96.26
70246;SHT30;57637;49.272;8.590;2023-02-15T02:54:56;0.83;96.27
70246;SHT30;57637;49.272;8.590;2023-02-15T02:57:22;0.81;96.25
70246;SHT30;57637;49.272;8.590;2023-02-15T02:59:49;0.83;96.26
70246;SHT30;57637;49.272;8.590;2023-02-15T03:02:19;0.87;96.27
70246;SHT30;57637;49.272;8.590;2023-02-15T03:04:50;0.84;96.28
70246;SHT30;57637;49.272;8.590;2023-02-15T03:07:23;0.88;96.28
70246;SHT30;57637;49.272;8.590;2023-02-15T03:09:53;0.88;96.27
70246;SHT30;57637;49.272;8.590;2023-02-15T03:15:02;0.85;96.26
70246;SHT30;57637;49.272;8.590;2023-02-15T03:17:29;0.85;96.26
70246;SHT30;57637;49.272;8.590;2023-02-15T03:19:59;0.83;96.26
70246;SHT30;57637;49.272;8.590;2023-02-15T03:22:33;0.88;96.26
70246;SHT30;57637;49.272;8.590;2023-02-15T03:27:34;0.88;96.27
70246;SHT30;57637;49.272;8.590;2023-02-15T03:30:05;0.91;96.26
70246;SHT30;57637;49.272;8.590;2023-02-15T03:32:32;0.88;96.27
70246;SHT30;57637;49.272;8.590;2023-02-15T03:34:59;0.91;96.24
70246;SHT30;57637;49.272;8.590;2023-02-15T03:40:02;0.91;96.27
70246;SHT30;57637;49.272;8.590;2023-02-15T03:42:55;0.98;96.33
70246;SHT30;57637;49.272;8.590;2023-02-15T03:45:27;1.05;96.35
70246;SHT30;57637;49.272;8.590;2023-02-15T03:47:56;1.06;96.33
70246;SHT30;57637;49.272;8.590;2023-02-15T03:50:26;1.08;96.35
70246;SHT30;57637;49.272;8.590;2023-02-15T03:53:14;1.11;96.35
70246;SHT30;57637;49.272;8.590;2023-02-15T03:55:45;1.16;96.35
70246;SHT30;57637;49.272;8.590;2023-02-15T03:58:12;1.16;96.34
70246;SHT30;57637;49.272;8.590;2023-02-15T04:01:00;1.15;96.27
70246;SHT30;57637;49.272;8.590;2023-02-15T04:04:12;1.14;96.30
70246;SHT30;57637;49.272;8.590;2023-02-15T04:06:44;1.21;96.32
70246;SHT30;57637;49.272;8.590;2023-02-15T04:09:09;1.22;96.30
70246;SHT30;57637;49.272;8.590;2023-02-15T04:11:53;1.24;96.29
70246;SHT30;57637;49.272;8.590;2023-02-15T04:14:18;1.22;96.30
70246;SHT30;57637;49.272;8.590;2023-02-15T04:17:05;1.25;96.28
70246;SHT30;57637;49.272;8.590;2023-02-15T04:19:31;1.28;96.29
70246;SHT30;57637;49.272;8.590;2023-02-15T04:22:15;1.31;96.29
70246;SHT30;57637;49.272;8.590;2023-02-15T04:24:59;1.35;96.32
70246;SHT30;57637;49.272;8.590;2023-02-15T04:27:46;1.35;96.26
70246;SHT30;57637;49.272;8.590;2023-02-15T04:30:14;1.36;96.29
70246;SHT30;57637;49.272;8.590;2023-02-15T04:32:40;1.36;96.29
70246;SHT30;57637;49.272;8.590;2023-02-15T04:35:06;1.36;96.28
70246;SHT30;57637;49.272;8.590;2023-02-15T04:37:33;1.45;96.27
70246;SHT30;57637;49.272;8.590;2023-02-15T04:39:58;1.39;96.26
70246;SHT30;57637;49.272;8.590;2023-02-15T04:42:24;1.46;96.25
70246;SHT30;57637;49.272;8.590;2023-02-15T04:44:50;1.45;96.30
70246;SHT30;57637;49.272;8.590;2023-02-15T04:47:16;1.39;96.22
70246;SHT30;57637;49.272;8.590;2023-02-15T04:49:41;1.45;96.19
70246;SHT30;57637;49.272;8.590;2023-02-15T04:52:07;1.46;96.19
70246;SHT30;57637;49.272;8.590;2023-02-15T04:54:32;1.46;96.20
70246;SHT30;57637;49.272;8.590;2023-02-15T04:56:58;1.49;96.19
70246;SHT30;57637;49.272;8.590;2023-02-15T04:59:23;1.46;96.16
70246;SHT30;57637;49.272;8.590;2023-02-15T05:01:48;1.35;96.05
70246;SHT30;57637;49.272;8.590;2023-02-15T05:04:14;1.45;96.10
70246;SHT30;57637;49.272;8.590;2023-02-15T05:06:39;1.48;96.11
70246;SHT30;57637;49.272;8.590;2023-02-15T05:09:04;1.42;96.10
70246;SHT30;57637;49.272;8.590;2023-02-15T05:11:30;1.48;96.07
70246;SHT30;57637;49.272;8.590;2023-02-15T05:13:55;1.43;96.08
70246;SHT30;57637;49.272;8.590;2023-02-15T05:16:21;1.42;96.04
70246;SHT30;57637;49.272;8.590;2023-02-15T05:18:46;1.40;96.07
70246;SHT30;57637;49.272;8.590;2023-02-15T05:21:11;1.46;96.03
70246;SHT30;57637;49.272;8.590;2023-02-15T05:23:38;1.48;96.05
70246;SHT30;57637;49.272;8.590;2023-02-15T05:26:04;1.43;96.01
70246;SHT30;57637;49.272;8.590;2023-02-15T05:28:48;1.42;95.98
70246;SHT30;57637;49.272;8.590;2023-02-15T05:31:14;1.34;95.96
70246;SHT30;57637;49.272;8.590;2023-02-15T05:33:42;1.36;95.95
70246;SHT30;57637;49.272;8.590;2023-02-15T05:36:08;1.40;95.98
70246;SHT30;57637;49.272;8.590;2023-02-15T05:38:33;1.38;95.90
70246;SHT30;57637;49.272;8.590;2023-02-15T05:40:59;1.36;95.85
70246;SHT30;57637;49.272;8.590;2023-02-15T05:43:25;1.32;95.79
70246;SHT30;57637;49.272;8.590;2023-02-15T05:45:51;1.29;95.79
70246;SHT30;57637;49.272;8.590;2023-02-15T05:48:19;1.31;95.80
70246;SHT30;57637;49.272;8.590;2023-02-15T05:50:45;1.24;95.72
70246;SHT30;57637;49.272;8.590;2023-02-15T05:53:11;1.32;95.79
70246;SHT30;57637;49.272;8.590;2023-02-15T05:55:38;1.25;95.76
70246;SHT30;57637;49.272;8.590;2023-02-15T05:58:04;1.26;95.70
70246;SHT30;57637;49.272;8.590;2023-02-15T06:00:30;1.21;95.66
70246;SHT30;57637;49.272;8.590;2023-02-15T06:02:55;1.19;95.61
70246;SHT30;57637;49.272;8.590;2023-02-15T06:05:20;1.21;95.58
70246;SHT30;57637;49.272;8.590;2023-02-15T06:07:46;1.25;95.62
70246;SHT30;57637;49.272;8.590;2023-02-15T06:10:11;1.25;95.57
70246;SHT30;57637;49.272;8.590;2023-02-15T06:12:37;1.26;95.57
70246;SHT30;57637;49.272;8.590;2023-02-15T06:15:03;1.26;95.55
70246;SHT30;57637;49.272;8.590;2023-02-15T06:17:28;1.25;95.57
70246;SHT30;57637;49.272;8.590;2023-02-15T06:19:54;1.19;95.46
70246;SHT30;57637;49.272;8.590;2023-02-15T06:22:19;1.25;95.49
70246;SHT30;57637;49.272;8.590;2023-02-15T06:24:45;1.19;95.42
70246;SHT30;57637;49.272;8.590;2023-02-15T06:27:11;1.22;95.45
70246;SHT30;57637;49.272;8.590;2023-02-15T06:29:36;1.22;95.41
70246;SHT30;57637;49.272;8.590;2023-02-15T06:32:02;1.16;95.38
70246;SHT30;57637;49.272;8.590;2023-02-15T06:34:28;1.21;95.37
70246;SHT30;57637;49.272;8.590;2023-02-15T06:36:53;1.24;95.34
70246;SHT30;57637;49.272;8.590;2023-02-15T06:39:18;1.21;95.36
70246;SHT30;57637;49.272;8.590;2023-02-15T06:41:44;1.16;95.25
70246;SHT30;57637;49.272;8.590;2023-02-15T06:44:09;1.18;95.21
70246;SHT30;57637;49.272;8.590;2023-02-15T06:46:34;1.21;95.17
70246;SHT30;57637;49.272;8.590;2023-02-15T06:49:00;1.21;95.15
70246;SHT30;57637;49.272;8.590;2023-02-15T06:51:25;1.21;95.08
70246;SHT30;57637;49.272;8.590;2023-02-15T06:53:51;1.19;95.08
70246;SHT30;57637;49.272;8.590;2023-02-15T06:56:16;1.21;95.08
70246;SHT30;57637;49.272;8.590;2023-02-15T06:58:41;1.16;95.03
70246;SHT30;57637;49.272;8.590;2023-02-15T07:01:07;1.19;94.99
70246;SHT30;57637;49.272;8.590;2023-02-15T07:03:34;1.09;94.90
70246;SHT30;57637;49.272;8.590;2023-02-15T07:06:00;1.14;94.84
70246;SHT30;57637;49.272;8.590;2023-02-15T07:08:28;1.16;94.83
70246;SHT30;57637;49.272;8.590;2023-02-15T07:10:53;1.14;94.77
70246;SHT30;57637;49.272;8.590;2023-02-15T07:13:40;1.16;94.78
70246;SHT30;57637;49.272;8.590;2023-02-15T07:16:07;1.15;94.67
70246;SHT30;57637;49.272;8.590;2023-02-15T07:18:33;1.16;94.74
70246;SHT30;57637;49.272;8.590;2023-02-15T07:20:58;1.19;94.71
70246;SHT30;57637;49.272;8.590;2023-02-15T07:23:24;1.24;94.69
70246;SHT30;57637;49.272;8.590;2023-02-15T07:25:56;1.22;94.61
70246;SHT30;57637;49.272;8.590;2023-02-15T07:28:24;1.22;94.59
70246;SHT30;57637;49.272;8.590;2023-02-15T07:30:50;1.18;94.44
70246;SHT30;57637;49.272;8.590;2023-02-15T07:33:15;1.18;94.40
70246;SHT30;57637;49.272;8.590;2023-02-15T07:35:58;1.24;94.42
70246;SHT30;57637;49.272;8.590;2023-02-15T07:38:27;1.18;94.29
70246;SHT30;57637;49.272;8.590;2023-02-15T07:41:02;1.24;94.33
70246;SHT30;57637;49.272;8.590;2023-02-15T07:43:29;1.24;94.21
70246;SHT30;57637;49.272;8.590;2023-02-15T07:46:00;1.22;94.16
70246;SHT30;57637;49.272;8.590;2023-02-15T07:48:30;1.14;94.08
70246;SHT30;57637;49.272;8.590;2023-02-15T07:51:00;1.21;94.01
70246;SHT30;57637;49.272;8.590;2023-02-15T07:53:26;1.28;93.98
70246;SHT30;57637;49.272;8.590;2023-02-15T07:55:52;1.31;93.91
70246;SHT30;57637;49.272;8.590;2023-02-15T07:58:18;1.31;93.84
70246;SHT30;57637;49.272;8.590;2023-02-15T08:00:43;1.25;93.68
70246;SHT30;57637;49.272;8.590;2023-02-15T08:03:24;0.97;93.46
70246;SHT30;57637;49.272;8.590;2023-02-15T08:05:54;0.98;93.74
70246;SHT30;57637;49.272;8.590;2023-02-15T08:08:22;1.01;93.55
70246;SHT30;57637;49.272;8.590;2023-02-15T08:11:00;1.05;93.68
70246;SHT30;57637;49.272;8.590;2023-02-15T08:13:45;1.18;93.73
70246;SHT30;57637;49.272;8.590;2023-02-15T08:16:27;1.01;93.49
70246;SHT30;57637;49.272;8.590;2023-02-15T08:18:54;1.02;93.45
70246;SHT30;57637;49.272;8.590;2023-02-15T08:21:21;0.68;93.22
70246;SHT30;57637;49.272;8.590;2023-02-15T08:23:47;0.91;93.75
70246;SHT30;57637;49.272;8.590;2023-02-15T08:26:13;1.08;93.70
70246;SHT30;57637;49.272;8.590;2023-02-15T08:28:40;1.22;93.59
70246;SHT30;57637;49.272;8.590;2023-02-15T08:33:32;1.31;93.49
70246;SHT30;57637;49.272;8.590;2023-02-15T08:36:02;1.35;93.39
70246;SHT30;57637;49.272;8.590;2023-02-15T08:38:32;1.04;92.93
70246;SHT30;57637;49.272;8.590;2023-02-15T08:41:07;1.06;93.22
70246;SHT30;57637;49.272;8.590;2023-02-15T08:43:37;1.29;93.49
70246;SHT30;57637;49.272;8.590;2023-02-15T08:46:04;1.38;93.33
70246;SHT30;57637;49.272;8.590;2023-02-15T08:48:30;1.12;92.86
70246;SHT30;57637;49.272;8.590;2023-02-15T08:50:55;0.87;92.94
70246;SHT30;57637;49.272;8.590;2023-02-15T08:53:21;0.83;93.10
70246;SHT30;57637;49.272;8.590;2023-02-15T08:55:47;0.87;93.28
70246;SHT30;57637;49.272;8.590;2023-02-15T08:58:19;0.67;93.27
70246;SHT30;57637;49.272;8.590;2023-02-15T09:00:45;0.63;93.60
70246;SHT30;57637;49.272;8.590;2023-02-15T09:03:10;0.87;93.66
70246;SHT30;57637;49.272;8.590;2023-02-15T09:05:35;0.80;93.38
70246;SHT30;57637;49.272;8.590;2023-02-15T09:08:01;0.77;93.55
70246;SHT30;57637;49.272;8.590;2023-02-15T09:10:27;0.70;93.49
70246;SHT30;57637;49.272;8.590;2023-02-15T09:12:54;1.05;93.83
70246;SHT30;57637;49.272;8.590;2023-02-15T09:15:19;1.15;93.66
70246;SHT30;57637;49.272;8.590;2023-02-15T09:17:45;1.38;93.72
70246;SHT30;57637;49.272;8.590;2023-02-15T09:20:10;0.98;93.40
70246;SHT30;57637;49.272;8.590;2023-02-15T09:22:35;1.29;93.67
70246;SHT30;57637;49.272;8.590;2023-02-15T09:25:01;1.42;93.58
70246;SHT30;57637;49.272;8.590;2023-02-15T09:27:26;1.28;93.26
70246;SHT30;57637;49.272;8.590;2023-02-15T09:29:52;1.58;93.19
70246;SHT30;57637;49.272;8.590;2023-02-15T09:32:17;1.25;92.74
70246;SHT30;57637;49.272;8.590;2023-02-15T09:34:42;1.26;92.85
70246;SHT30;57637;49.272;8.590;2023-02-15T09:37:08;1.22;92.61
70246;SHT30;57637;49.272;8.590;2023-02-15T09:39:34;1.04;92.44
70246;SHT30;57637;49.272;8.590;2023-02-15T09:42:14;1.08;92.96
70246;SHT30;57637;49.272;8.590;2023-02-15T09:47:24;1.24;92.87
70246;SHT30;57637;49.272;8.590;2023-02-15T09:50:36;1.26;92.90
70246;SHT30;57637;49.272;8.590;2023-02-15T09:53:35;1.06;92.59
70246;SHT30;57637;49.272;8.590;2023-02-15T09:59:09;1.53;92.99
70246;SHT30;57637;49.272;8.590;2023-02-15T10:04:22;1.84;92.61
70246;SHT30;57637;49.272;8.590;2023-02-15T10:15:40;2.09;91.86
70246;SHT30;57637;49.272;8.590;2023-02-15T10:18:18;2.25;91.81
70246;SHT30;57637;49.272;8.590;2023-02-15T10:29:09;2.28;90.54
70246;SHT30;57637;49.272;8.590;2023-02-15T10:41:02;2.45;90.42
70246;SHT30;57637;49.272;8.590;2023-02-15T10:43:49;2.32;90.36
70246;SHT30;57637;49.272;8.590;2023-02-15T10:49:11;2.04;90.76
70246;SHT30;57637;49.272;8.590;2023-02-15T10:51:58;2.22;90.87
70246;SHT30;57637;49.272;8.590;2023-02-15T10:54:36;2.49;90.63
70246;SHT30;57637;49.272;8.590;2023-02-15T10:57:31;2.69;90.29
70246;SHT30;57637;49.272;8.590;2023-02-15T11:00:45;2.83;89.67
70246;SHT30;57637;49.272;8.590;2023-02-15T11:08:29;3.09;88.42
70246;SHT30;57637;49.272;8.590;2023-02-15T11:11:01;3.10;87.88
70246;SHT30;57637;49.272;8.590;2023-02-15T11:13:32;3.16;87.86
70246;SHT30;57637;49.272;8.590;2023-02-15T11:16:15;3.26;88.12
70246;SHT30;57637;49.272;8.590;2023-02-15T11:18:57;3.06;86.61
70246;SHT30;57637;49.272;8.590;2023-02-15T11:21:42;2.73;88.10
70246;SHT30;57637;49.272;8.590;2023-02-15T11:24:14;2.73;88.37
70246;SHT30;57637;49.272;8.590;2023-02-15T11:29:50;3.12;88.80
70246;SHT30;57637;49.272;8.590;2023-02-15T11:32:18;3.06;87.95
70246;SHT30;57637;49.272;8.590;2023-02-15T11:35:02;3.36;87.42
70246;SHT30;57637;49.272;8.590;2023-02-15T11:40:24;3.56;86.28
70246;SHT30;57637;49.272;8.590;2023-02-15T11:42:55;3.50;85.41
70246;SHT30;57637;49.272;8.590;2023-02-15T11:47:56;3.48;85.94
70246;SHT30;57637;49.272;8.590;2023-02-15T11:50:23;3.27;85.81
70246;SHT30;57637;49.272;8.590;2023-02-15T11:52:51;3.27;86.89
70246;SHT30;57637;49.272;8.590;2023-02-15T11:55:22;3.50;86.48
70246;SHT30;57637;49.272;8.590;2023-02-15T11:58:04;3.61;86.40
70246;SHT30;57637;49.272;8.590;2023-02-15T12:00:46;3.58;85.89
70246;SHT30;57637;49.272;8.590;2023-02-15T12:03:20;3.54;86.79
70246;SHT30;57637;49.272;8.590;2023-02-15T12:05:58;3.00;86.61
70246;SHT30;57637;49.272;8.590;2023-02-15T12:08:32;3.23;87.43
70246;SHT30;57637;49.272;8.590;2023-02-15T12:11:09;3.54;87.16
70246;SHT30;57637;49.272;8.590;2023-02-15T12:13:58;3.26;85.98
70246;SHT30;57637;49.272;8.590;2023-02-15T12:16:26;3.06;87.15
70246;SHT30;57637;49.272;8.590;2023-02-15T12:18:55;3.20;87.54
70246;SHT30;57637;49.272;8.590;2023-02-15T12:24:44;2.92;87.68
70246;SHT30;57637;49.272;8.590;2023-02-15T12:27:05;3.38;87.51
70246;SHT30;57637;49.272;8.590;2023-02-15T12:30:41;3.60;86.01
70246;SHT30;57637;49.272;8.590;2023-02-15T12:32:48;3.89;85.65
70246;SHT30;57637;49.272;8.590;2023-02-15T12:38:04;3.78;84.74
70246;SHT30;57637;49.272;8.590;2023-02-15T12:40:35;3.53;85.42
70246;SHT30;57637;49.272;8.590;2023-02-15T12:43:02;3.61;85.56
70246;SHT30;57637;49.272;8.590;2023-02-15T12:45:34;3.94;84.78
70246;SHT30;57637;49.272;8.590;2023-02-15T12:48:08;4.18;84.94
70246;SHT30;57637;49.272;8.590;2023-02-15T12:50:37;4.49;83.28
70246;SHT30;57637;49.272;8.590;2023-02-15T12:53:22;4.19;82.59
70246;SHT30;57637;49.272;8.590;2023-02-15T12:56:06;3.60;85.48
70246;SHT30;57637;49.272;8.590;2023-02-15T12:58:34;4.16;85.93
70246;SHT30;57637;49.272;8.590;2023-02-15T13:03:38;4.85;83.46
70246;SHT30;57637;49.272;8.590;2023-02-15T13:06:18;5.15;82.69
70246;SHT30;57637;49.272;8.590;2023-02-15T13:08:47;5.39;82.01
70246;SHT30;57637;49.272;8.590;2023-02-15T13:11:34;5.49;80.86
70246;SHT30;57637;49.272;8.590;2023-02-15T13:14:01;5.18;80.42
70246;SHT30;57637;49.272;8.590;2023-02-15T13:16:32;4.94;81.22
70246;SHT30;57637;49.272;8.590;2023-02-15T13:19:06;5.21;80.81
70246;SHT30;57637;49.272;8.590;2023-02-15T13:21:38;5.36;80.36
70246;SHT30;57637;49.272;8.590;2023-02-15T13:24:10;5.56;79.74
70246;SHT30;57637;49.272;8.590;2023-02-15T13:26:44;5.72;80.34
70246;SHT30;57637;49.272;8.590;2023-02-15T13:29:17;5.77;79.59
70246;SHT30;57637;49.272;8.590;2023-02-15T13:31:47;5.79;78.51
70246;SHT30;57637;49.272;8.590;2023-02-15T13:34:15;5.80;78.97
70246;SHT30;57637;49.272;8.590;2023-02-15T13:39:38;5.82;79.80
70246;SHT30;57637;49.272;8.590;2023-02-15T13:42:30;5.63;79.57
70246;SHT30;57637;49.272;8.590;2023-02-15T13:58:13;4.84;81.60
70246;SHT30;57637;49.272;8.590;2023-02-15T14:10:02;5.24;82.69
70246;SHT30;57637;49.272;8.590;2023-02-15T14:12:48;4.98;81.77
70246;SHT30;57637;49.272;8.590;2023-02-15T14:15:28;5.10;81.75
70246;SHT30;57637;49.272;8.590;2023-02-15T14:18:07;4.95;81.74
70246;SHT30;57637;49.272;8.590;2023-02-15T14:23:38;5.12;81.58
70246;SHT30;57637;49.272;8.590;2023-02-15T14:31:31;4.84;82.30
70246;SHT30;57637;49.272;8.590;2023-02-15T14:34:00;4.97;82.76
70246;SHT30;57637;49.272;8.590;2023-02-15T14:36:25;5.11;82.25
70246;SHT30;57637;49.272;8.590;2023-02-15T14:42:07;5.00;81.97
70246;SHT30;57637;49.272;8.590;2023-02-15T14:47:33;4.94;81.89
70246;SHT30;57637;49.272;8.590;2023-02-15T14:55:42;4.88;82.21
70246;SHT30;57637;49.272;8.590;2023-02-15T14:58:10;4.76;82.74
70246;SHT30;57637;49.272;8.590;2023-02-15T15:00:38;4.76;82.92
70246;SHT30;57637;49.272;8.590;2023-02-15T15:03:23;4.74;83.50
70246;SHT30;57637;49.272;8.590;2023-02-15T15:05:54;4.93;83.16
70246;SHT30;57637;49.272;8.590;2023-02-15T15:08:28;5.00;82.93
70246;SHT30;57637;49.272;8.590;2023-02-15T15:10:58;5.08;82.81
70246;SHT30;57637;49.272;8.590;2023-02-15T15:13:53;4.95;82.82
70246;SHT30;57637;49.272;8.590;2023-02-15T15:16:25;4.77;83.40
70246;SHT30;57637;49.272;8.590;2023-02-15T15:19:03;4.93;83.50
70246;SHT30;57637;49.272;8.590;2023-02-15T15:33:23;5.04;83.16
70246;SHT30;57637;49.272;8.590;2023-02-15T15:44:32;4.87;83.49
70246;SHT30;57637;49.272;8.590;2023-02-15T15:47:40;4.84;83.81
70246;SHT30;57637;49.272;8.590;2023-02-15T15:50:11;4.77;84.01
70246;SHT30;57637;49.272;8.590;2023-02-15T15:52:41;4.70;84.26
70246;SHT30;57637;49.272;8.590;2023-02-15T15:55:18;4.67;84.33
70246;SHT30;57637;49.272;8.590;2023-02-15T15:57:49;4.53;84.25
70246;SHT30;57637;49.272;8.590;2023-02-15T16:03:47;4.30;84.88
70246;SHT30;57637;49.272;8.590;2023-02-15T16:05:59;4.28;85.59
70246;SHT30;57637;49.272;8.590;2023-02-15T16:08:35;4.18;85.63
70246;SHT30;57637;49.272;8.590;2023-02-15T16:11:36;4.08;85.89
70246;SHT30;57637;49.272;8.590;2023-02-15T16:13:56;3.95;86.26
70246;SHT30;57637;49.272;8.590;2023-02-15T16:16:22;3.88;86.46
70246;SHT30;57637;49.272;8.590;2023-02-15T16:18:52;3.77;86.62
70246;SHT30;57637;49.272;8.590;2023-02-15T16:21:20;3.70;86.98
70246;SHT30;57637;49.272;8.590;2023-02-15T16:23:57;3.60;87.10
70246;SHT30;57637;49.272;8.590;2023-02-15T16:29:16;3.36;87.59
70246;SHT30;57637;49.272;8.590;2023-02-15T16:31:55;3.28;87.83
70246;SHT30;57637;49.272;8.590;2023-02-15T16:34:25;3.20;88.06
70246;SHT30;57637;49.272;8.590;2023-02-15T16:37:11;3.09;88.16
70246;SHT30;57637;49.272;8.590;2023-02-15T16:39:40;2.95;88.46
70246;SHT30;57637;49.272;8.590;2023-02-15T16:42:06;2.85;88.74
70246;SHT30;57637;49.272;8.590;2023-02-15T16:44:32;2.79;89.00
70246;SHT30;57637;49.272;8.590;2023-02-15T16:46:58;2.68;89.33
70246;SHT30;57637;49.272;8.590;2023-02-15T16:49:25;2.61;89.48
70246;SHT30;57637;49.272;8.590;2023-02-15T16:51:56;2.56;89.64
70246;SHT30;57637;49.272;8.590;2023-02-15T16:54:24;2.45;89.79
70246;SHT30;57637;49.272;8.590;2023-02-15T16:56:52;2.37;89.93
70246;SHT30;57637;49.272;8.590;2023-02-15T17:02:03;2.20;90.24
70246;SHT30;57637;49.272;8.590;2023-02-15T17:04:31;2.14;90.36
70246;SHT30;57637;49.272;8.590;2023-02-15T17:09:25;2.01;90.54
70246;SHT30;57637;49.272;8.590;2023-02-15T17:11:50;1.91;90.71
70246;SHT30;57637;49.272;8.590;2023-02-15T17:14:29;1.86;90.81
70246;SHT30;57637;49.272;8.590;2023-02-15T17:17:00;1.81;91.03
70246;SHT30;57637;49.272;8.590;2023-02-15T17:19:33;1.79;91.15
70246;SHT30;57637;49.272;8.590;2023-02-15T17:22:15;1.81;91.40
70246;SHT30;57637;49.272;8.590;2023-02-15T17:24:45;1.74;91.39
70246;SHT30;57637;49.272;8.590;2023-02-15T17:27:27;1.58;91.30
70246;SHT30;57637;49.272;8.590;2023-02-15T17:29:57;1.36;91.27
70246;SHT30;57637;49.272;8.590;2023-02-15T17:32:29;1.29;91.36
70246;SHT30;57637;49.272;8.590;2023-02-15T17:34:59;1.21;91.44
70246;SHT30;57637;49.272;8.590;2023-02-15T17:40:19;1.11;91.57
70246;SHT30;57637;49.272;8.590;2023-02-15T17:42:48;1.08;91.63
70246;SHT30;57637;49.272;8.590;2023-02-15T17:45:13;1.04;91.67
70246;SHT30;57637;49.272;8.590;2023-02-15T17:47:39;0.99;91.67
70246;SHT30;57637;49.272;8.590;2023-02-15T17:50:05;0.95;91.69
70246;SHT30;57637;49.272;8.590;2023-02-15T17:52:32;0.91;91.74
70246;SHT30;57637;49.272;8.590;2023-02-15T17:54:58;0.88;91.76
70246;SHT30;57637;49.272;8.590;2023-02-15T17:57:43;0.91;91.90
70246;SHT30;57637;49.272;8.590;2023-02-15T18:00:09;0.71;91.52
70246;SHT30;57637;49.272;8.590;2023-02-15T18:02:57;0.54;91.42
70246;SHT30;57637;49.272;8.590;2023-02-15T18:05:41;0.49;91.72
70246;SHT30;57637;49.272;8.590;2023-02-15T18:08:25;0.44;91.76
70246;SHT30;57637;49.272;8.590;2023-02-15T18:11:11;0.50;92.17
70246;SHT30;57637;49.272;8.590;2023-02-15T18:13:55;0.52;92.21
70246;SHT30;57637;49.272;8.590;2023-02-15T18:16:26;0.49;92.32
70246;SHT30;57637;49.272;8.590;2023-02-15T18:18:55;0.49;92.35
70246;SHT30;57637;49.272;8.590;2023-02-15T18:21:22;0.47;92.36
70246;SHT30;57637;49.272;8.590;2023-02-15T18:23:48;0.49;92.36
70246;SHT30;57637;49.272;8.590;2023-02-15T18:26:18;0.49;92.35
70246;SHT30;57637;49.272;8.590;2023-02-15T18:28:45;0.47;92.40
70246;SHT30;57637;49.272;8.590;2023-02-15T18:31:11;0.47;92.42
70246;SHT30;57637;49.272;8.590;2023-02-15T18:33:39;0.47;92.42
70246;SHT30;57637;49.272;8.590;2023-02-15T18:36:15;0.46;92.47
70246;SHT30;57637;49.272;8.590;2023-02-15T18:38:44;0.40;92.48
70246;SHT30;57637;49.272;8.590;2023-02-15T18:41:14;0.33;92.41
70246;SHT30;57637;49.272;8.590;2023-02-15T18:43:42;0.20;92.35
70246;SHT30;57637;49.272;8.590;2023-02-15T18:46:08;0.07;92.32
70246;SHT30;57637;49.272;8.590;2023-02-15T18:48:34;0.02;92.42
70246;SHT30;57637;49.272;8.590;2023-02-15T18:50:59;-0.04;92.41
70246;SHT30;57637;49.272;8.590;2023-02-15T18:53:24;-0.04;92.44
70246;SHT30;57637;49.272;8.590;2023-02-15T18:55:50;-0.05;92.42
70246;SHT30;57637;49.272;8.590;2023-02-15T18:58:17;-0.14;92.36